createdAt,value
2023-09-07T00:01:35.223Z,53.67
2023-09-07T00:04:04.599Z,53.65
2023-09-07T00:06:32.080Z,53.70
2023-09-07T00:08:59.151Z,53.53
2023-09-07T00:11:26.299Z,53.62
2023-09-07T00:13:53.452Z,54.64
2023-09-07T00:16:20.732Z,54.10
2023-09-07T00:18:47.961Z,54.24
2023-09-07T00:21:15.192Z,54.18
2023-09-07T00:23:42.292Z,54.83
2023-09-07T00:26:09.867Z,54.33
2023-09-07T00:28:37.290Z,54.79
2023-09-07T00:31:04.866Z,54.25
2023-09-07T00:33:32.075Z,55.04
2023-09-07T00:35:59.185Z,55.28
2023-09-07T00:38:26.376Z,55.57
2023-09-07T00:40:53.579Z,55.59
2023-09-07T00:43:20.861Z,55.25
2023-09-07T00:45:48.357Z,56.08
2023-09-07T00:48:17.476Z,56.47
2023-09-07T00:50:45.298Z,55.83
2023-09-07T00:53:12.615Z,56.14
2023-09-07T00:55:39.974Z,56.45
2023-09-07T00:58:07.519Z,55.46
2023-09-07T01:00:35.331Z,56.22
2023-09-07T01:03:02.687Z,55.99
2023-09-07T01:05:35.986Z,55.78
2023-09-07T01:08:09.365Z,55.12
2023-09-07T01:10:36.582Z,55.68
2023-09-07T01:13:03.767Z,55.30
2023-09-07T01:15:31.076Z,55.64
2023-09-07T01:18:10.226Z,55.33
2023-09-07T01:20:48.281Z,56.05
2023-09-07T01:23:15.705Z,56.87
2023-09-07T01:25:43.100Z,57.28
2023-09-07T01:28:10.472Z,56.89
2023-09-07T01:30:39.890Z,58.15
2023-09-07T01:33:07.256Z,58.35
2023-09-07T01:35:34.963Z,58.32
2023-09-07T01:38:02.903Z,58.94
2023-09-07T01:40:30.424Z,59.57
2023-09-07T01:42:57.674Z,59.50
2023-09-07T01:45:25.204Z,60.38
2023-09-07T01:47:53.330Z,60.26
2023-09-07T01:50:21.008Z,59.55
2023-09-07T01:52:49.649Z,59.54
2023-09-07T01:55:17.205Z,60.37
2023-09-07T01:57:45.110Z,60.69
2023-09-07T02:00:13.334Z,60.45
2023-09-07T02:02:43.749Z,60.54
2023-09-07T02:05:11.248Z,60.84
2023-09-07T02:07:38.504Z,59.60
2023-09-07T02:10:06.113Z,59.72
2023-09-07T02:12:33.253Z,58.96
2023-09-07T02:15:02.344Z,58.13
2023-09-07T02:17:30.084Z,58.65
2023-09-07T02:19:57.533Z,59.20
2023-09-07T02:22:24.842Z,59.59
2023-09-07T02:24:52.196Z,60.09
2023-09-07T02:27:19.357Z,59.73
2023-09-07T02:29:46.575Z,59.86
2023-09-07T02:32:14.368Z,59.95
2023-09-07T02:34:41.570Z,60.08
2023-09-07T02:37:08.900Z,59.83
2023-09-07T02:39:36.185Z,60.35
2023-09-07T02:42:03.485Z,61.48
2023-09-07T02:44:31.134Z,61.58
2023-09-07T02:46:58.366Z,61.42
2023-09-07T02:49:25.588Z,61.93
2023-09-07T02:51:52.852Z,62.93
2023-09-07T02:54:20.824Z,63.17
2023-09-07T02:56:47.916Z,64.38
2023-09-07T02:59:15.264Z,65.46
2023-09-07T03:01:42.400Z,65.73
2023-09-07T03:04:09.570Z,64.03
2023-09-07T03:06:37.404Z,65.55
2023-09-07T03:09:09.747Z,65.97
2023-09-07T03:11:38.641Z,65.66
2023-09-07T03:14:05.815Z,64.75
2023-09-07T03:16:33.176Z,65.27
2023-09-07T03:19:00.378Z,65.01
2023-09-07T03:21:30.553Z,64.30
2023-09-07T03:23:59.034Z,64.57
2023-09-07T03:26:26.830Z,64.38
2023-09-07T03:28:54.463Z,63.61
2023-09-07T03:31:21.674Z,63.00
2023-09-07T03:33:50.693Z,63.11
2023-09-07T03:36:17.919Z,63.25
2023-09-07T03:38:45.182Z,63.06
2023-09-07T03:41:14.071Z,62.96
2023-09-07T03:43:44.052Z,62.78
2023-09-07T03:46:11.407Z,63.12
2023-09-07T03:48:41.364Z,62.38
2023-09-07T03:51:09.426Z,63.29
2023-09-07T03:53:36.610Z,63.22
2023-09-07T03:56:05.187Z,63.49
2023-09-07T03:58:32.902Z,63.96
2023-09-07T04:01:00.786Z,63.57
2023-09-07T04:03:29.852Z,62.77
2023-09-07T04:05:57.692Z,62.51
2023-09-07T04:08:24.872Z,62.43
2023-09-07T04:10:52.111Z,62.48
2023-09-07T04:13:19.324Z,63.07
2023-09-07T04:15:46.701Z,64.11
2023-09-07T04:18:18.705Z,64.14
2023-09-07T04:20:46.924Z,64.41
2023-09-07T04:23:15.713Z,63.42
2023-09-07T04:25:42.953Z,64.28
2023-09-07T04:28:10.611Z,63.72
2023-09-07T04:30:41.505Z,62.96
2023-09-07T04:33:08.997Z,64.62
2023-09-07T04:35:38.022Z,64.56
2023-09-07T04:38:05.362Z,62.19
2023-09-07T04:40:33.048Z,62.19
2023-09-07T04:43:00.564Z,62.77
2023-09-07T04:45:28.035Z,61.81
2023-09-07T04:47:55.256Z,62.93
2023-09-07T04:50:22.665Z,63.22
2023-09-07T04:52:49.856Z,63.45
2023-09-07T04:55:17.749Z,61.73
2023-09-07T04:57:45.036Z,62.84
2023-09-07T05:00:12.549Z,61.55
2023-09-07T05:02:43.187Z,62.42
2023-09-07T05:05:10.876Z,63.85
2023-09-07T05:07:38.657Z,62.61
2023-09-07T05:10:08.014Z,62.66
2023-09-07T05:12:35.542Z,64.57
2023-09-07T05:15:03.073Z,65.34
2023-09-07T05:17:30.782Z,65.81
2023-09-07T05:19:58.051Z,66.17
2023-09-07T05:22:27.292Z,66.25
2023-09-07T05:24:55.676Z,65.00
2023-09-07T05:27:25.496Z,65.85
2023-09-07T05:29:52.717Z,65.82
2023-09-07T05:32:19.847Z,63.74
2023-09-07T05:34:46.979Z,66.47
2023-09-07T05:37:14.127Z,63.01
2023-09-07T05:39:41.362Z,65.49
2023-09-07T05:42:08.531Z,66.12
2023-09-07T05:44:35.815Z,63.48
2023-09-07T05:47:03.974Z,64.50
2023-09-07T05:49:31.801Z,65.87
2023-09-07T05:51:59.121Z,66.45
2023-09-07T05:54:27.095Z,65.18
2023-09-07T05:56:54.366Z,66.76
2023-09-07T05:59:21.512Z,66.53
2023-09-07T06:01:48.600Z,65.18
2023-09-07T06:04:16.222Z,66.18
2023-09-07T06:06:43.566Z,65.56
2023-09-07T06:09:10.828Z,64.65
2023-09-07T06:11:38.093Z,65.21
2023-09-07T06:14:06.904Z,65.60
2023-09-07T06:16:34.056Z,66.76
2023-09-07T06:19:01.169Z,66.48
2023-09-07T06:21:28.367Z,66.60
2023-09-07T06:23:55.557Z,65.32
2023-09-07T06:26:23.045Z,68.17
2023-09-07T06:28:50.295Z,65.94
2023-09-07T06:31:19.551Z,65.01
2023-09-07T06:33:47.458Z,66.63
2023-09-07T06:36:14.606Z,61.79
2023-09-07T06:38:42.060Z,66.57
2023-09-07T06:41:10.613Z,64.77
2023-09-07T06:43:38.421Z,65.61
2023-09-07T06:46:08.124Z,68.52
2023-09-07T06:48:35.685Z,66.46
2023-09-07T06:51:06.755Z,65.27
2023-09-07T06:53:55.334Z,65.75
2023-09-07T06:56:22.431Z,62.75
2023-09-07T06:58:49.892Z,62.96
2023-09-07T07:01:17.118Z,59.83
2023-09-07T07:03:44.897Z,62.67
2023-09-07T07:06:12.654Z,60.09
2023-09-07T07:08:40.175Z,58.57
2023-09-07T07:11:07.385Z,56.78
2023-09-07T07:13:35.786Z,54.56
2023-09-07T07:16:03.221Z,51.75
2023-09-07T07:18:30.691Z,54.58
2023-09-07T07:20:59.098Z,52.57
2023-09-07T07:23:26.184Z,52.70
2023-09-07T07:25:54.035Z,51.51
2023-09-07T07:28:21.849Z,50.85
2023-09-07T07:30:49.364Z,49.59
2023-09-07T07:33:16.539Z,47.33
2023-09-07T07:35:44.750Z,46.86
2023-09-07T07:38:14.342Z,45.99
2023-09-07T07:40:41.873Z,44.25
2023-09-07T07:43:10.366Z,47.56
2023-09-07T07:45:39.632Z,45.89
2023-09-07T07:48:08.806Z,45.30
2023-09-07T07:50:40.121Z,44.05
2023-09-07T07:53:08.954Z,42.27
2023-09-07T07:55:41.586Z,39.86
2023-09-07T07:58:12.148Z,38.63
2023-09-07T08:00:42.168Z,38.93
2023-09-07T08:03:10.097Z,38.33
2023-09-07T08:05:40.621Z,38.85
2023-09-07T08:08:09.157Z,39.29
2023-09-07T08:10:41.604Z,38.13
2023-09-07T08:13:10.439Z,38.06
2023-09-07T08:15:38.006Z,38.51
2023-09-07T08:18:06.960Z,37.76
2023-09-07T08:20:34.485Z,37.95
2023-09-07T08:23:04.817Z,38.26
2023-09-07T08:25:32.699Z,38.29
2023-09-07T08:28:01.276Z,38.05
2023-09-07T08:30:28.507Z,37.74
2023-09-07T08:32:56.509Z,37.59
2023-09-07T08:35:28.120Z,38.12
2023-09-07T08:37:56.178Z,38.14
2023-09-07T08:40:24.682Z,38.02
2023-09-07T08:42:52.447Z,37.91
2023-09-07T08:45:23.018Z,38.05
2023-09-07T08:47:51.459Z,37.94
2023-09-07T08:50:20.628Z,38.27
2023-09-07T08:52:52.793Z,38.63
2023-09-07T08:55:21.232Z,38.40
2023-09-07T08:57:48.546Z,37.62
2023-09-07T09:00:17.676Z,37.77
2023-09-07T09:02:56.101Z,37.83
2023-09-07T09:05:26.265Z,37.65
2023-09-07T09:08:03.968Z,37.98
2023-09-07T09:10:31.724Z,37.83
2023-09-07T09:13:00.856Z,37.49
2023-09-07T09:15:28.505Z,37.26
2023-09-07T09:17:56.145Z,37.79
2023-09-07T09:20:28.004Z,37.51
2023-09-07T09:22:56.586Z,37.19
2023-09-07T09:25:24.233Z,37.18
2023-09-07T09:27:51.658Z,37.03
2023-09-07T09:30:19.136Z,36.24
2023-09-07T09:32:49.186Z,36.63
2023-09-07T09:35:20.892Z,35.76
2023-09-07T09:37:52.142Z,36.40
2023-09-07T09:40:20.155Z,35.66
2023-09-07T09:42:47.944Z,35.82
2023-09-07T09:45:15.905Z,35.43
2023-09-07T09:47:43.854Z,35.59
2023-09-07T09:50:12.888Z,35.96
2023-09-07T09:52:40.570Z,36.35
2023-09-07T09:55:09.761Z,35.40
2023-09-07T09:57:37.661Z,36.23
2023-09-07T10:00:18.608Z,35.47
2023-09-07T10:03:19.980Z,35.81
2023-09-07T10:05:47.616Z,35.92
2023-09-07T10:08:16.416Z,35.85
2023-09-07T10:10:45.423Z,35.37
2023-09-07T10:13:15.933Z,35.74
2023-09-07T10:15:43.708Z,35.91
2023-09-07T10:18:16.866Z,36.03
2023-09-07T10:21:07.559Z,35.91
2023-09-07T10:23:45.129Z,35.60
2023-09-07T10:26:17.903Z,34.87
2023-09-07T10:28:45.926Z,34.23
2023-09-07T10:31:18.758Z,34.38
2023-09-07T10:33:47.327Z,34.75
2023-09-07T10:36:23.273Z,34.51
2023-09-07T10:38:54.174Z,34.37
2023-09-07T10:41:21.776Z,34.94
2023-09-07T10:43:50.238Z,35.46
2023-09-07T10:46:22.013Z,35.42
2023-09-07T10:48:53.498Z,34.85
2023-09-07T10:51:21.624Z,35.41
2023-09-07T10:53:49.281Z,34.83
2023-09-07T10:56:19.152Z,35.60
2023-09-07T10:58:52.370Z,34.67
2023-09-07T11:01:21.667Z,35.24
2023-09-07T11:03:49.391Z,35.57
2023-09-07T11:06:20.384Z,34.71
2023-09-07T11:08:48.305Z,34.88
2023-09-07T11:11:16.934Z,35.20
2023-09-07T11:13:47.529Z,35.42
2023-09-07T11:19:16.145Z,35.28
2023-09-07T11:21:43.971Z,35.65
2023-09-07T11:24:11.169Z,35.63
2023-09-07T11:26:41.996Z,35.56
2023-09-07T11:29:09.137Z,35.76
2023-09-07T11:31:36.410Z,35.66
2023-09-07T11:34:05.281Z,36.05
2023-09-07T11:36:35.445Z,35.61
2023-09-07T11:39:13.183Z,35.44
2023-09-07T11:41:42.235Z,35.19
2023-09-07T11:44:09.746Z,34.78
2023-09-07T11:46:37.333Z,35.09
2023-09-07T11:49:06.001Z,35.32
2023-09-07T11:51:34.155Z,35.22
2023-09-07T11:54:08.337Z,35.65
2023-09-07T11:56:40.581Z,35.27
2023-09-07T12:02:18.692Z,35.07
2023-09-07T12:04:45.970Z,34.97
2023-09-07T12:07:13.101Z,35.48
2023-09-07T12:09:40.263Z,35.96
2023-09-07T12:12:10.703Z,35.53
2023-09-07T12:14:37.974Z,34.83
2023-09-07T12:17:05.472Z,35.13
2023-09-07T12:19:32.788Z,35.43
2023-09-07T12:22:00.012Z,35.23
2023-09-07T12:24:27.135Z,35.56
2023-09-07T12:26:55.054Z,35.87
2023-09-07T12:29:22.569Z,35.98
2023-09-07T12:31:49.905Z,35.85
2023-09-07T12:34:17.185Z,35.81
2023-09-07T12:36:44.420Z,36.13
2023-09-07T12:39:13.728Z,36.88
2023-09-07T12:41:41.631Z,36.11
2023-09-07T12:44:08.910Z,35.93
2023-09-07T12:46:38.192Z,35.06
2023-09-07T12:49:05.545Z,35.81
2023-09-07T12:51:32.875Z,35.40
2023-09-07T12:54:00.075Z,34.74
2023-09-07T12:56:27.255Z,35.67
2023-09-07T12:58:54.482Z,35.37
2023-09-07T13:01:21.982Z,34.86
2023-09-07T13:03:49.188Z,34.64
2023-09-07T13:06:18.493Z,34.81
2023-09-07T13:08:46.047Z,34.45
2023-09-07T13:11:13.233Z,34.68
2023-09-07T13:13:40.658Z,33.83
2023-09-07T13:16:09.567Z,34.40
2023-09-07T13:18:36.908Z,34.88
2023-09-07T13:21:04.485Z,34.82
2023-09-07T13:23:32.649Z,34.98
2023-09-07T13:26:02.088Z,34.75
2023-09-07T13:28:29.530Z,34.05
2023-09-07T13:30:59.915Z,34.68
2023-09-07T13:33:27.225Z,34.63
2023-09-07T13:35:54.593Z,34.18
2023-09-07T13:38:22.060Z,34.61
2023-09-07T13:40:49.468Z,33.90
2023-09-07T13:43:16.829Z,34.57
2023-09-07T13:45:45.237Z,34.12
2023-09-07T13:48:12.715Z,34.03
2023-09-07T13:50:40.426Z,33.74
2023-09-07T13:53:07.885Z,34.13
2023-09-07T13:55:36.278Z,33.54
2023-09-07T13:58:03.746Z,33.97
2023-09-07T14:00:33.310Z,33.35
2023-09-07T14:03:00.843Z,33.22
2023-09-07T14:05:28.333Z,33.39
2023-09-07T14:08:07.514Z,34.16
2023-09-07T14:11:03.788Z,33.82
2023-09-07T14:13:35.539Z,33.18
2023-09-07T14:16:07.762Z,33.54
2023-09-07T14:18:35.656Z,33.74
2023-09-07T14:21:03.190Z,33.16
2023-09-07T14:23:31.389Z,33.52
2023-09-07T14:26:00.127Z,33.53
2023-09-07T14:28:27.336Z,33.82
2023-09-07T14:30:55.521Z,33.58
2023-09-07T14:33:28.158Z,33.31
2023-09-07T14:35:56.294Z,33.16
2023-09-07T14:38:24.634Z,32.75
2023-09-07T14:40:52.090Z,32.35
2023-09-07T14:43:20.535Z,32.13
2023-09-07T14:45:48.365Z,32.19
2023-09-07T14:48:15.922Z,32.14
2023-09-07T14:50:46.248Z,32.82
2023-09-07T14:53:13.796Z,32.75
2023-09-07T14:55:41.239Z,32.31
2023-09-07T14:58:10.741Z,32.49
2023-09-07T15:00:38.514Z,32.80
2023-09-07T15:03:06.201Z,32.56
2023-09-07T15:05:36.468Z,32.84
2023-09-07T15:08:05.635Z,32.46
2023-09-07T15:10:35.117Z,32.41
2023-09-07T15:13:06.799Z,32.73
2023-09-07T15:15:37.601Z,32.68
2023-09-07T15:18:05.286Z,32.69
2023-09-07T15:20:32.794Z,32.59
2023-09-07T15:23:00.036Z,32.44
2023-09-07T15:25:31.367Z,32.63
2023-09-07T15:27:59.881Z,32.54
2023-09-07T15:30:30.157Z,33.07
2023-09-07T15:32:57.938Z,32.81
2023-09-07T15:35:27.789Z,33.03
2023-09-07T15:37:55.816Z,33.31
2023-09-07T15:40:23.005Z,33.22
2023-09-07T15:42:50.668Z,33.17
2023-09-07T15:45:17.977Z,32.65
2023-09-07T15:47:45.403Z,33.26
2023-09-07T15:50:13.072Z,32.68
2023-09-07T15:52:47.767Z,32.61
2023-09-07T15:55:21.734Z,32.59
2023-09-07T15:57:49.751Z,33.54
2023-09-07T16:00:17.278Z,33.17
2023-09-07T16:02:51.639Z,33.37
2023-09-07T16:05:23.252Z,34.13
2023-09-07T16:07:51.334Z,33.43
2023-09-07T16:10:22.710Z,33.53
2023-09-07T16:12:50.219Z,33.90
2023-09-07T16:15:18.122Z,33.86
2023-09-07T16:17:45.798Z,34.27
2023-09-07T16:20:14.023Z,34.51
2023-09-07T16:22:41.611Z,34.27
2023-09-07T16:25:11.868Z,34.58
2023-09-07T16:27:41.856Z,34.48
2023-09-07T16:30:09.889Z,34.98
2023-09-07T16:32:38.986Z,34.66
2023-09-07T16:35:06.778Z,34.32
2023-09-07T16:37:33.986Z,34.81
2023-09-07T16:40:01.283Z,34.40
2023-09-07T16:42:28.808Z,34.86
2023-09-07T16:44:56.078Z,35.15
2023-09-07T16:47:24.056Z,35.53
2023-09-07T16:49:52.673Z,34.92
2023-09-07T16:52:21.010Z,35.47
2023-09-07T16:54:48.869Z,35.75
2023-09-07T16:57:16.869Z,35.40
2023-09-07T17:02:15.457Z,36.83
2023-09-07T17:04:43.856Z,37.22
2023-09-07T17:07:12.234Z,39.40
2023-09-07T17:09:47.539Z,37.38
2023-09-07T17:12:16.248Z,36.62
2023-09-07T17:14:48.864Z,38.85
2023-09-07T17:17:17.010Z,37.51
2023-09-07T17:19:45.083Z,40.44
2023-09-07T17:22:14.338Z,41.07
2023-09-07T17:24:41.687Z,41.55
2023-09-07T17:27:09.447Z,41.48
2023-09-07T17:29:36.910Z,42.18
2023-09-07T17:32:04.701Z,41.95
2023-09-07T17:34:35.608Z,42.31
2023-09-07T17:37:04.758Z,41.75
2023-09-07T17:39:34.385Z,42.56
2023-09-07T17:42:27.435Z,42.90
2023-09-07T17:44:54.799Z,42.95
2023-09-07T17:47:23.203Z,42.81
2023-09-07T17:49:51.088Z,41.61
2023-09-07T17:52:18.522Z,42.85
2023-09-07T17:54:46.143Z,43.07
2023-09-07T17:57:13.512Z,42.98
2023-09-07T17:59:40.808Z,43.43
2023-09-07T18:02:26.381Z,43.62
2023-09-07T18:04:58.218Z,43.85
2023-09-07T18:07:25.804Z,43.04
2023-09-07T18:09:53.161Z,42.46
2023-09-07T18:12:21.618Z,43.02
2023-09-07T18:14:49.346Z,43.28
2023-09-07T18:17:16.815Z,42.65
2023-09-07T18:19:44.101Z,43.94
2023-09-07T18:22:11.481Z,44.25
2023-09-07T18:24:38.894Z,45.12
2023-09-07T18:27:06.299Z,46.36
2023-09-07T18:29:34.440Z,46.75
2023-09-07T18:32:01.944Z,46.16
2023-09-07T18:34:29.230Z,46.96
2023-09-07T18:36:56.644Z,46.75
2023-09-07T18:39:26.563Z,47.57
2023-09-07T18:41:53.914Z,48.12
2023-09-07T18:44:21.240Z,47.55
2023-09-07T18:46:48.791Z,48.28
2023-09-07T18:49:16.246Z,48.05
2023-09-07T18:51:43.875Z,48.25
2023-09-07T18:54:11.052Z,48.53
2023-09-07T18:56:38.274Z,49.00
2023-09-07T18:59:06.115Z,49.06
2023-09-07T19:01:33.437Z,49.88
2023-09-07T19:04:11.753Z,50.50
2023-09-07T19:06:40.119Z,50.76
2023-09-07T19:09:09.089Z,50.10
2023-09-07T19:11:36.678Z,50.17
2023-09-07T19:14:04.548Z,50.54
2023-09-07T19:16:31.763Z,50.32
2023-09-07T19:18:58.954Z,50.83
2023-09-07T19:21:26.852Z,50.43
2023-09-07T19:23:54.170Z,51.18
2023-09-07T19:26:28.593Z,51.58
2023-09-07T19:28:56.275Z,51.74
2023-09-07T19:31:23.677Z,51.60
2023-09-07T19:33:51.637Z,51.88
2023-09-07T19:36:19.436Z,51.40
2023-09-07T19:38:46.546Z,52.84
2023-09-07T19:41:13.997Z,53.01
2023-09-07T19:43:44.490Z,52.98
2023-09-07T19:46:12.326Z,52.14
2023-09-07T19:48:42.129Z,52.53
2023-09-07T19:51:13.906Z,52.79
2023-09-07T19:53:42.078Z,53.40
2023-09-07T19:56:12.082Z,52.81
2023-09-07T19:58:39.774Z,53.42
2023-09-07T20:01:20.085Z,54.00
2023-09-07T20:03:49.489Z,53.58
2023-09-07T20:06:19.011Z,53.98
2023-09-07T20:08:46.804Z,54.67
2023-09-07T20:11:15.499Z,54.99
2023-09-07T20:13:43.236Z,54.23
2023-09-07T20:16:13.302Z,54.75
2023-09-07T20:18:41.173Z,54.16
2023-09-07T20:21:09.016Z,54.59
2023-09-07T20:23:37.142Z,53.93
2023-09-07T20:26:05.004Z,54.15
2023-09-07T20:28:33.952Z,54.09
2023-09-07T20:31:01.927Z,54.74
2023-09-07T20:33:29.588Z,55.47
2023-09-07T20:35:58.290Z,55.33
2023-09-07T20:38:25.752Z,54.79
2023-09-07T20:40:53.285Z,53.86
2023-09-07T20:43:24.450Z,53.70
2023-09-07T20:45:53.670Z,54.40
2023-09-07T20:48:22.115Z,53.96
2023-09-07T20:50:49.921Z,54.08
2023-09-07T20:53:18.332Z,55.15
2023-09-07T20:55:45.628Z,54.72
2023-09-07T20:58:13.003Z,55.44
2023-09-07T21:00:40.236Z,55.32
2023-09-07T21:03:07.707Z,54.96
2023-09-07T21:05:34.982Z,56.08
2023-09-07T21:08:04.350Z,56.35
2023-09-07T21:10:31.670Z,55.90
2023-09-07T21:12:59.225Z,56.11
2023-09-07T21:15:26.689Z,55.42
2023-09-07T21:17:54.018Z,56.44
2023-09-07T21:20:21.359Z,57.20
2023-09-07T21:22:48.639Z,57.69
2023-09-07T21:25:15.757Z,57.36
2023-09-07T21:27:45.122Z,57.05
2023-09-07T21:30:12.597Z,57.35
2023-09-07T21:32:39.696Z,56.03
2023-09-07T21:35:07.104Z,56.45
2023-09-07T21:37:34.309Z,57.22
2023-09-07T21:40:01.512Z,56.97
2023-09-07T21:42:28.733Z,54.83
2023-09-07T21:44:56.344Z,57.26
2023-09-07T21:47:23.459Z,58.05
2023-09-07T21:49:50.592Z,57.00
2023-09-07T21:52:17.872Z,56.03
2023-09-07T21:54:46.203Z,56.61
2023-09-07T21:57:13.333Z,56.52
2023-09-07T21:59:43.550Z,56.84
2023-09-07T22:02:10.914Z,57.58
2023-09-07T22:04:38.046Z,57.20
2023-09-07T22:07:05.375Z,57.57
2023-09-07T22:09:34.349Z,58.45
2023-09-07T22:12:01.483Z,59.05
2023-09-07T22:14:29.534Z,58.75
2023-09-07T22:16:56.699Z,58.37
2023-09-07T22:19:23.897Z,57.79
2023-09-07T22:21:51.086Z,57.76
2023-09-07T22:24:18.387Z,57.29
2023-09-07T22:26:45.533Z,57.11
2023-09-07T22:29:12.814Z,57.68
2023-09-07T22:31:40.305Z,57.96
2023-09-07T22:34:07.414Z,57.71
2023-09-07T22:36:34.533Z,57.21
2023-09-07T22:39:01.745Z,57.26
2023-09-07T22:41:29.658Z,57.16
2023-09-07T22:43:57.022Z,56.93
2023-09-07T22:46:24.298Z,56.63
2023-09-07T22:48:51.571Z,56.84
2023-09-07T22:51:18.885Z,56.39
2023-09-07T22:53:46.109Z,57.15
2023-09-07T22:56:13.249Z,56.57
2023-09-07T22:58:41.267Z,57.04
2023-09-07T23:01:08.398Z,57.00
2023-09-07T23:03:35.742Z,56.61
2023-09-07T23:06:03.041Z,57.21
2023-09-07T23:08:32.830Z,57.05
2023-09-07T23:11:00.521Z,57.24
2023-09-07T23:13:27.766Z,58.01
2023-09-07T23:15:55.001Z,58.88
2023-09-07T23:18:22.322Z,59.18
2023-09-07T23:20:50.648Z,59.72
2023-09-07T23:23:17.887Z,59.47
2023-09-07T23:25:45.044Z,59.87
2023-09-07T23:28:12.299Z,59.21
2023-09-07T23:30:39.451Z,60.26
2023-09-07T23:33:06.918Z,59.83
2023-09-07T23:35:34.146Z,60.44
2023-09-07T23:38:01.282Z,60.70
2023-09-07T23:40:28.933Z,60.68
2023-09-07T23:42:56.391Z,61.38
2023-09-07T23:45:23.668Z,62.26
2023-09-07T23:47:51.204Z,61.72
2023-09-07T23:50:18.504Z,61.14
2023-09-07T23:52:45.625Z,61.38
2023-09-07T23:55:14.386Z,62.61
2023-09-07T23:57:41.775Z,61.50
